Terminal Aerodrome Forecast
Issued by NWS Albuquerque, NM

Home | Current Version | Previous Version | Text Only | Print | Product List | Glossary On
Versions: 1 2 3 4 5 6 7 8 9 10 11 12 13 14
000
FTUS45 KABQ 201100 RRA
TAFABQ
TAF
KABQ 201140Z 2012/2112 02005KT P6SM FEW030
     FM201500 VRB05KT P6SM SKC
     FM202200 09013G24KT P6SM SCT090
     FM210030 09020G32KT P6SM SCT050 SCT140
     FM210900 09016G27KT P6SM SCT035 SCT080 BKN100=

USA.gov is the U.S. government's official web portal to all federal, state and local government web resources and services.